createdAt,value
2022-12-12T00:05:00.867Z,1.00
2022-12-12T00:10:07.942Z,1.00
2022-12-12T00:15:15.641Z,1.00
2022-12-12T00:20:21.299Z,1.00
2022-12-12T00:25:28.281Z,1.00
2022-12-12T00:30:34.680Z,1.00
2022-12-12T00:35:42.172Z,1.00
2022-12-12T00:40:49.216Z,1.00
2022-12-12T00:45:56.061Z,1.00
2022-12-12T00:51:12.331Z,1.00
2022-12-12T00:56:21.394Z,21.80
2022-12-12T01:01:31.045Z,43.40
2022-12-12T01:06:38.178Z,99.90
2022-12-12T01:11:44.303Z,99.90
2022-12-12T01:16:50.008Z,99.90
2022-12-12T01:21:56.835Z,99.90
2022-12-12T01:27:03.293Z,99.90
2022-12-12T01:32:09.639Z,99.90
2022-12-12T01:37:16.133Z,99.90
2022-12-12T01:42:22.659Z,99.90
2022-12-12T01:47:29.200Z,99.90
2022-12-12T01:52:45.535Z,99.90
2022-12-12T01:57:55.605Z,99.90
2022-12-12T02:03:02.296Z,99.90
2022-12-12T02:08:10.988Z,99.90
2022-12-12T02:13:23.841Z,99.90
2022-12-12T02:19:12.194Z,99.90
2022-12-12T02:24:39.671Z,32.00
2022-12-12T02:30:23.702Z,29.90
2022-12-12T02:35:46.955Z,2.00
2022-12-12T02:41:15.698Z,1.00
2022-12-12T02:46:35.506Z,1.00
2022-12-12T02:51:42.191Z,1.00
2022-12-12T02:56:53.504Z,1.00
2022-12-12T03:02:34.271Z,1.00
2022-12-12T03:08:07.185Z,1.00
2022-12-12T03:13:21.722Z,1.00
2022-12-12T03:19:09.437Z,1.00
2022-12-12T03:24:38.831Z,1.00
2022-12-12T03:29:50.120Z,1.00
2022-12-12T03:35:03.978Z,1.00
2022-12-12T03:40:24.610Z,1.00
2022-12-12T03:45:58.942Z,1.00
2022-12-12T03:51:10.350Z,1.00
2022-12-12T03:56:58.203Z,1.00
2022-12-12T04:02:21.401Z,1.00
2022-12-12T04:07:35.208Z,1.00
2022-12-12T04:13:02.842Z,1.00
2022-12-12T04:18:22.210Z,1.00
2022-12-12T04:23:48.991Z,1.00
2022-12-12T04:29:14.602Z,1.00
2022-12-12T04:34:37.325Z,1.00
2022-12-12T04:39:46.250Z,1.00
2022-12-12T04:44:56.790Z,1.00
2022-12-12T04:50:04.556Z,1.00
2022-12-12T04:55:18.309Z,1.00
2022-12-12T05:00:27.937Z,1.00
2022-12-12T05:05:56.010Z,1.00
2022-12-12T05:11:05.523Z,1.00
2022-12-12T05:16:38.700Z,1.00
2022-12-12T05:21:45.473Z,1.00
2022-12-12T05:26:52.446Z,1.00
2022-12-12T05:31:58.759Z,1.00
2022-12-12T05:37:05.491Z,1.00
2022-12-12T05:42:11.902Z,1.00
2022-12-12T05:47:19.421Z,1.00
2022-12-12T05:52:25.553Z,1.00
2022-12-12T05:57:32.415Z,5.80
2022-12-12T06:02:39.676Z,6.30
2022-12-12T06:07:46.712Z,7.60
2022-12-12T06:12:53.616Z,1.00
2022-12-12T06:17:59.992Z,1.00
2022-12-12T06:23:06.082Z,1.00
2022-12-12T06:28:12.333Z,1.00
2022-12-12T06:33:19.699Z,1.00
2022-12-12T06:38:26.448Z,1.00
2022-12-12T06:43:33.332Z,1.00
2022-12-12T06:48:39.237Z,1.00
2022-12-12T06:53:45.653Z,1.00
2022-12-12T06:58:55.071Z,3.70
2022-12-12T07:04:02.329Z,1.00
2022-12-12T07:09:08.828Z,1.00
2022-12-12T07:14:15.902Z,1.00
2022-12-12T07:19:22.918Z,1.00
2022-12-12T07:24:29.193Z,1.00
2022-12-12T07:29:35.995Z,1.00
2022-12-12T07:34:42.078Z,1.00
2022-12-12T07:39:50.812Z,1.00
2022-12-12T07:44:57.123Z,1.00
2022-12-12T07:50:04.076Z,1.00
2022-12-12T07:55:10.544Z,1.50
2022-12-12T08:00:17.958Z,1.00
2022-12-12T08:05:24.639Z,1.00
2022-12-12T08:10:31.544Z,1.00
2022-12-12T08:15:37.686Z,1.00
2022-12-12T08:20:44.260Z,1.00
2022-12-12T08:25:50.723Z,1.00
2022-12-12T08:30:57.062Z,1.00
2022-12-12T08:36:14.833Z,1.00
2022-12-12T08:41:21.907Z,1.00
2022-12-12T08:46:28.489Z,1.00
2022-12-12T08:51:34.938Z,1.00
2022-12-12T08:56:41.949Z,1.00
2022-12-12T09:01:48.324Z,1.00
2022-12-12T09:06:55.970Z,1.00
2022-12-12T09:12:03.177Z,1.00
2022-12-12T09:17:09.299Z,1.00
2022-12-12T09:22:20.450Z,1.00
2022-12-12T09:27:27.488Z,1.00
2022-12-12T09:32:33.977Z,1.00
2022-12-12T09:37:40.711Z,1.00
2022-12-12T09:42:53.068Z,1.00
2022-12-12T09:48:03.191Z,1.00
2022-12-12T09:53:16.826Z,1.00
2022-12-12T09:58:56.881Z,1.00
2022-12-12T10:04:27.213Z,1.00
2022-12-12T10:10:02.279Z,1.00
2022-12-12T10:15:16.036Z,1.00
2022-12-12T10:20:32.588Z,1.00
2022-12-12T10:26:05.777Z,1.00
2022-12-12T10:31:51.388Z,1.00
2022-12-12T10:37:32.802Z,1.00
2022-12-12T10:43:04.545Z,1.00
2022-12-12T10:48:10.951Z,1.00
2022-12-12T10:53:18.535Z,1.00
2022-12-12T10:58:30.940Z,1.00
2022-12-12T11:03:46.043Z,1.00
2022-12-12T11:09:23.453Z,1.00
2022-12-12T11:14:36.897Z,1.00
2022-12-12T11:19:45.072Z,1.00
2022-12-12T11:24:54.517Z,1.00
2022-12-12T11:30:08.782Z,1.00
2022-12-12T11:35:41.131Z,1.00
2022-12-12T11:40:46.671Z,1.00
2022-12-12T11:46:20.156Z,1.00
2022-12-12T11:51:45.053Z,1.00
2022-12-12T11:57:21.866Z,1.00
2022-12-12T12:02:48.903Z,1.00
2022-12-12T12:08:26.347Z,1.00
2022-12-12T12:13:53.828Z,1.00
2022-12-12T12:19:16.329Z,1.00
2022-12-12T12:24:49.753Z,1.00
2022-12-12T12:30:20.071Z,1.00
2022-12-12T12:35:55.624Z,1.00
2022-12-12T12:41:23.157Z,1.00
2022-12-12T12:47:07.856Z,1.00
2022-12-12T12:52:25.350Z,1.00
2022-12-12T12:57:38.180Z,1.00
2022-12-12T13:03:14.906Z,1.00
2022-12-12T13:08:51.225Z,1.00
2022-12-12T13:14:02.704Z,1.00
2022-12-12T13:19:22.928Z,1.00
2022-12-12T13:25:06.844Z,1.00
2022-12-12T13:30:22.886Z,1.00
2022-12-12T13:35:44.849Z,1.00
2022-12-12T13:41:04.038Z,1.00
2022-12-12T13:46:31.820Z,1.00
2022-12-12T13:51:42.380Z,1.00
2022-12-12T13:57:07.400Z,1.00
2022-12-12T14:02:35.854Z,19.00
2022-12-12T14:07:52.726Z,38.80
2022-12-12T14:13:21.571Z,55.30
2022-12-12T14:18:35.241Z,99.90
2022-12-12T14:23:53.432Z,99.90
2022-12-12T14:29:22.691Z,99.90
2022-12-12T14:34:55.546Z,99.90
2022-12-12T14:40:12.614Z,99.90
2022-12-12T14:45:41.407Z,99.90
2022-12-12T14:51:04.694Z,99.90
2022-12-12T14:56:15.751Z,99.90
2022-12-12T15:01:39.129Z,99.90
2022-12-12T15:06:48.852Z,99.90
2022-12-12T15:12:14.809Z,99.90
2022-12-12T15:17:26.110Z,99.90
2022-12-12T15:22:58.275Z,99.90
2022-12-12T15:28:05.160Z,99.90
2022-12-12T15:33:24.243Z,99.90
2022-12-12T15:38:32.108Z,99.90
2022-12-12T15:43:40.485Z,99.90
2022-12-12T15:48:51.248Z,99.90
2022-12-12T15:53:58.593Z,99.90
2022-12-12T15:59:12.645Z,99.90
2022-12-12T16:04:24.246Z,99.90
2022-12-12T16:09:31.107Z,99.90
2022-12-12T16:14:43.623Z,99.90
2022-12-12T16:20:06.469Z,99.90
2022-12-12T16:25:25.132Z,99.90
2022-12-12T16:30:32.157Z,99.90
2022-12-12T16:35:37.880Z,99.90
2022-12-12T16:40:50.209Z,99.90
2022-12-12T16:45:58.140Z,99.90
2022-12-12T16:51:08.259Z,99.90
2022-12-12T16:56:15.852Z,99.90
2022-12-12T17:01:23.956Z,99.90
2022-12-12T17:06:30.529Z,54.90
2022-12-12T17:11:37.110Z,21.70
2022-12-12T17:16:43.611Z,1.00
2022-12-12T17:21:51.016Z,1.00
2022-12-12T17:26:59.017Z,1.00
2022-12-12T17:32:06.228Z,1.00
2022-12-12T17:37:13.431Z,1.00
2022-12-12T17:42:20.134Z,1.00
2022-12-12T17:47:28.409Z,1.00
2022-12-12T17:52:35.419Z,1.00
2022-12-12T17:57:41.834Z,1.00
2022-12-12T18:02:48.476Z,1.00
2022-12-12T18:07:55.418Z,1.00
2022-12-12T18:13:03.051Z,1.00
2022-12-12T18:18:09.973Z,1.00
2022-12-12T18:23:16.415Z,1.00
2022-12-12T18:28:23.702Z,1.00
2022-12-12T18:33:30.240Z,1.00
2022-12-12T18:38:37.594Z,1.00
2022-12-12T18:43:45.660Z,99.90
2022-12-12T18:48:52.146Z,99.90
2022-12-12T18:54:09.429Z,99.90
2022-12-12T18:59:13.352Z,1.00
2022-12-12T19:04:23.568Z,1.00
2022-12-12T19:09:28.481Z,1.00
2022-12-12T19:14:59.702Z,1.00
2022-12-12T19:19:43.847Z,1.00
2022-12-12T19:24:50.621Z,1.00
2022-12-12T19:29:57.616Z,1.00
2022-12-12T19:35:04.214Z,1.00
2022-12-12T19:40:12.013Z,1.00
2022-12-12T19:45:19.313Z,1.20
2022-12-12T19:50:25.968Z,99.40
2022-12-12T19:55:33.385Z,99.50
2022-12-12T20:00:40.248Z,69.70
2022-12-12T20:05:53.340Z,99.90
2022-12-12T20:10:55.453Z,99.90
2022-12-12T20:16:09.642Z,99.90
2022-12-12T20:21:43.590Z,90.40
2022-12-12T20:26:30.185Z,49.00
2022-12-12T20:31:42.714Z,1.00
2022-12-12T20:36:50.492Z,2.50
2022-12-12T20:41:57.644Z,1.00
2022-12-12T20:47:04.050Z,1.00
2022-12-12T20:52:10.222Z,1.00
2022-12-12T20:57:17.037Z,1.00
2022-12-12T21:02:29.900Z,1.00
2022-12-12T21:07:34.311Z,1.00
2022-12-12T21:12:40.647Z,1.00
2022-12-12T21:17:47.541Z,1.00
2022-12-12T21:22:55.090Z,99.90
2022-12-12T21:28:01.326Z,99.90
2022-12-12T21:33:06.792Z,99.90
2022-12-12T21:38:13.617Z,99.90
2022-12-12T21:43:19.456Z,99.90
2022-12-12T21:48:26.015Z,99.90
2022-12-12T21:53:36.100Z,99.90
2022-12-12T21:58:44.992Z,99.90
2022-12-12T22:03:53.559Z,99.90
2022-12-12T22:09:02.153Z,22.00
2022-12-12T22:14:10.202Z,79.20
2022-12-12T22:19:20.151Z,99.90
2022-12-12T22:24:27.228Z,99.90
2022-12-12T22:29:33.997Z,99.90
2022-12-12T22:34:40.391Z,99.90
2022-12-12T22:39:46.925Z,99.90
2022-12-12T22:44:53.538Z,99.90
2022-12-12T22:50:00.762Z,99.90
2022-12-12T22:55:06.628Z,99.90
2022-12-12T23:00:13.777Z,99.90
2022-12-12T23:05:20.284Z,99.90
2022-12-12T23:10:27.161Z,99.90
2022-12-12T23:15:34.169Z,99.90
2022-12-12T23:20:40.326Z,99.90
2022-12-12T23:25:45.988Z,99.90
2022-12-12T23:30:52.044Z,99.90
2022-12-12T23:35:58.627Z,99.90
2022-12-12T23:41:08.069Z,99.90
2022-12-12T23:46:31.979Z,99.90
2022-12-12T23:51:42.320Z,99.90
2022-12-12T23:56:50.087Z,99.90
